sensor_id;sensor_type;location;lat;lon;timestamp;P1;durP1;ratioP1;P2;durP2;ratioP2
2810;SDS011;1413;52.440;13.506;2023-03-01T00:01:00;53.05;;;22.63;;
2810;SDS011;1413;52.440;13.506;2023-03-01T00:03:28;54.85;;;22.55;;
2810;SDS011;1413;52.440;13.506;2023-03-01T00:05:55;46.05;;;18.45;;
2810;SDS011;1413;52.440;13.506;2023-03-01T00:08:24;41.60;;;17.02;;
2810;SDS011;1413;52.440;13.506;2023-03-01T00:10:59;47.85;;;18.70;;
2810;SDS011;1413;52.440;13.506;2023-03-01T00:13:27;42.10;;;17.92;;
2810;SDS011;1413;52.440;13.506;2023-03-01T00:15:54;37.88;;;17.13;;
2810;SDS011;1413;52.440;13.506;2023-03-01T00:18:22;37.83;;;16.65;;
2810;SDS011;1413;52.440;13.506;2023-03-01T00:20:50;37.78;;;16.35;;
2810;SDS011;1413;52.440;13.506;2023-03-01T00:23:18;47.03;;;18.83;;
2810;SDS011;1413;52.440;13.506;2023-03-01T00:25:47;31.52;;;13.73;;
2810;SDS011;1413;52.440;13.506;2023-03-01T00:28:14;41.78;;;16.60;;
2810;SDS011;1413;52.440;13.506;2023-03-01T00:30:42;42.35;;;16.15;;
2810;SDS011;1413;52.440;13.506;2023-03-01T00:33:10;36.88;;;15.73;;
2810;SDS011;1413;52.440;13.506;2023-03-01T00:35:37;41.80;;;15.20;;
2810;SDS011;1413;52.440;13.506;2023-03-01T00:38:05;37.13;;;14.38;;
2810;SDS011;1413;52.440;13.506;2023-03-01T00:40:33;35.42;;;15.18;;
2810;SDS011;1413;52.440;13.506;2023-03-01T00:43:02;38.55;;;14.30;;
2810;SDS011;1413;52.440;13.506;2023-03-01T00:45:30;31.30;;;13.77;;
2810;SDS011;1413;52.440;13.506;2023-03-01T00:47:58;31.17;;;13.70;;
2810;SDS011;1413;52.440;13.506;2023-03-01T00:50:25;39.30;;;16.00;;
2810;SDS011;1413;52.440;13.506;2023-03-01T00:52:53;34.45;;;13.98;;
2810;SDS011;1413;52.440;13.506;2023-03-01T00:55:21;36.58;;;14.25;;
2810;SDS011;1413;52.440;13.506;2023-03-01T00:57:48;37.83;;;15.25;;
2810;SDS011;1413;52.440;13.506;2023-03-01T01:00:18;38.28;;;14.60;;
2810;SDS011;1413;52.440;13.506;2023-03-01T01:02:45;32.45;;;14.30;;
2810;SDS011;1413;52.440;13.506;2023-03-01T01:05:13;28.17;;;13.52;;
2810;SDS011;1413;52.440;13.506;2023-03-01T01:07:40;32.95;;;14.23;;
2810;SDS011;1413;52.440;13.506;2023-03-01T01:10:08;32.45;;;14.32;;
2810;SDS011;1413;52.440;13.506;2023-03-01T01:12:39;27.58;;;11.85;;
2810;SDS011;1413;52.440;13.506;2023-03-01T01:15:06;28.35;;;13.13;;
2810;SDS011;1413;52.440;13.506;2023-03-01T01:17:35;29.33;;;12.63;;
2810;SDS011;1413;52.440;13.506;2023-03-01T01:20:03;34.65;;;14.02;;
2810;SDS011;1413;52.440;13.506;2023-03-01T01:22:31;30.27;;;13.80;;
2810;SDS011;1413;52.440;13.506;2023-03-01T01:24:58;29.50;;;12.88;;
2810;SDS011;1413;52.440;13.506;2023-03-01T01:27:26;37.83;;;14.63;;
2810;SDS011;1413;52.440;13.506;2023-03-01T01:29:53;30.60;;;14.05;;
2810;SDS011;1413;52.440;13.506;2023-03-01T01:32:21;28.30;;;14.02;;
2810;SDS011;1413;52.440;13.506;2023-03-01T01:34:53;39.15;;;15.18;;
2810;SDS011;1413;52.440;13.506;2023-03-01T01:37:20;32.22;;;14.73;;
2810;SDS011;1413;52.440;13.506;2023-03-01T01:39:48;33.30;;;13.93;;
2810;SDS011;1413;52.440;13.506;2023-03-01T01:42:16;38.78;;;17.10;;
2810;SDS011;1413;52.440;13.506;2023-03-01T01:44:44;40.58;;;15.10;;
2810;SDS011;1413;52.440;13.506;2023-03-01T01:47:14;38.10;;;14.93;;
2810;SDS011;1413;52.440;13.506;2023-03-01T01:49:42;34.35;;;14.90;;
2810;SDS011;1413;52.440;13.506;2023-03-01T01:52:13;36.55;;;15.82;;
2810;SDS011;1413;52.440;13.506;2023-03-01T01:54:42;33.58;;;15.07;;
2810;SDS011;1413;52.440;13.506;2023-03-01T01:57:12;39.03;;;16.38;;
2810;SDS011;1413;52.440;13.506;2023-03-01T01:59:42;40.65;;;16.35;;
2810;SDS011;1413;52.440;13.506;2023-03-01T02:02:10;34.10;;;15.65;;
2810;SDS011;1413;52.440;13.506;2023-03-01T02:04:39;39.10;;;15.65;;
2810;SDS011;1413;52.440;13.506;2023-03-01T02:07:07;28.00;;;12.68;;
2810;SDS011;1413;52.440;13.506;2023-03-01T02:09:37;32.58;;;13.73;;
2810;SDS011;1413;52.440;13.506;2023-03-01T02:12:05;28.67;;;12.88;;
2810;SDS011;1413;52.440;13.506;2023-03-01T02:14:33;26.80;;;11.88;;
2810;SDS011;1413;52.440;13.506;2023-03-01T02:17:00;31.05;;;13.52;;
2810;SDS011;1413;52.440;13.506;2023-03-01T02:19:31;31.60;;;13.23;;
2810;SDS011;1413;52.440;13.506;2023-03-01T02:22:01;30.33;;;11.50;;
2810;SDS011;1413;52.440;13.506;2023-03-01T02:24:35;28.02;;;12.13;;
2810;SDS011;1413;52.440;13.506;2023-03-01T02:29:34;23.60;;;10.30;;
2810;SDS011;1413;52.440;13.506;2023-03-01T02:32:02;23.33;;;10.48;;
2810;SDS011;1413;52.440;13.506;2023-03-01T02:34:29;23.85;;;11.05;;
2810;SDS011;1413;52.440;13.506;2023-03-01T02:36:59;24.85;;;10.90;;
2810;SDS011;1413;52.440;13.506;2023-03-01T02:39:30;21.73;;;10.48;;
2810;SDS011;1413;52.440;13.506;2023-03-01T02:41:59;23.30;;;10.38;;
2810;SDS011;1413;52.440;13.506;2023-03-01T02:44:28;19.85;;;9.70;;
2810;SDS011;1413;52.440;13.506;2023-03-01T02:46:57;23.13;;;11.07;;
2810;SDS011;1413;52.440;13.506;2023-03-01T02:49:29;25.77;;;11.88;;
2810;SDS011;1413;52.440;13.506;2023-03-01T02:52:01;24.25;;;11.13;;
2810;SDS011;1413;52.440;13.506;2023-03-01T02:54:34;27.13;;;11.10;;
2810;SDS011;1413;52.440;13.506;2023-03-01T02:57:04;29.42;;;11.93;;
2810;SDS011;1413;52.440;13.506;2023-03-01T02:59:32;25.50;;;11.32;;
2810;SDS011;1413;52.440;13.506;2023-03-01T03:02:06;26.73;;;11.45;;
2810;SDS011;1413;52.440;13.506;2023-03-01T03:04:34;26.30;;;11.70;;
2810;SDS011;1413;52.440;13.506;2023-03-01T03:07:02;24.65;;;11.20;;
2810;SDS011;1413;52.440;13.506;2023-03-01T03:09:29;23.83;;;10.85;;
2810;SDS011;1413;52.440;13.506;2023-03-01T03:11:57;21.67;;;10.93;;
2810;SDS011;1413;52.440;13.506;2023-03-01T03:14:24;23.88;;;10.27;;
2810;SDS011;1413;52.440;13.506;2023-03-01T03:16:52;22.27;;;10.93;;
2810;SDS011;1413;52.440;13.506;2023-03-01T03:19:21;25.63;;;10.32;;
2810;SDS011;1413;52.440;13.506;2023-03-01T03:21:48;23.63;;;11.57;;
2810;SDS011;1413;52.440;13.506;2023-03-01T03:24:16;22.92;;;10.25;;
2810;SDS011;1413;52.440;13.506;2023-03-01T03:26:44;27.83;;;11.93;;
2810;SDS011;1413;52.440;13.506;2023-03-01T03:29:12;21.60;;;10.77;;
2810;SDS011;1413;52.440;13.506;2023-03-01T03:31:39;22.85;;;10.40;;
2810;SDS011;1413;52.440;13.506;2023-03-01T03:34:07;24.55;;;11.15;;
2810;SDS011;1413;52.440;13.506;2023-03-01T03:36:35;26.95;;;11.40;;
2810;SDS011;1413;52.440;13.506;2023-03-01T03:39:03;21.33;;;10.63;;
2810;SDS011;1413;52.440;13.506;2023-03-01T03:41:34;23.60;;;10.43;;
2810;SDS011;1413;52.440;13.506;2023-03-01T03:44:01;23.58;;;9.88;;
2810;SDS011;1413;52.440;13.506;2023-03-01T03:46:29;22.48;;;10.02;;
2810;SDS011;1413;52.440;13.506;2023-03-01T03:48:57;23.55;;;10.75;;
2810;SDS011;1413;52.440;13.506;2023-03-01T03:51:25;23.60;;;10.50;;
2810;SDS011;1413;52.440;13.506;2023-03-01T03:53:53;24.67;;;11.18;;
2810;SDS011;1413;52.440;13.506;2023-03-01T03:56:21;27.23;;;11.63;;
2810;SDS011;1413;52.440;13.506;2023-03-01T03:58:54;25.90;;;11.38;;
2810;SDS011;1413;52.440;13.506;2023-03-01T04:01:21;26.40;;;11.18;;
2810;SDS011;1413;52.440;13.506;2023-03-01T04:03:49;24.13;;;10.55;;
2810;SDS011;1413;52.440;13.506;2023-03-01T04:06:20;25.25;;;11.13;;
2810;SDS011;1413;52.440;13.506;2023-03-01T04:08:48;27.75;;;11.63;;
2810;SDS011;1413;52.440;13.506;2023-03-01T04:11:27;25.88;;;11.88;;
2810;SDS011;1413;52.440;13.506;2023-03-01T04:13:56;26.73;;;11.75;;
2810;SDS011;1413;52.440;13.506;2023-03-01T04:16:24;22.17;;;10.90;;
2810;SDS011;1413;52.440;13.506;2023-03-01T04:18:51;24.85;;;10.50;;
2810;SDS011;1413;52.440;13.506;2023-03-01T04:21:20;25.70;;;10.48;;
2810;SDS011;1413;52.440;13.506;2023-03-01T04:23:48;25.60;;;10.68;;
2810;SDS011;1413;52.440;13.506;2023-03-01T04:26:18;27.88;;;11.90;;
2810;SDS011;1413;52.440;13.506;2023-03-01T04:28:48;28.58;;;12.05;;
2810;SDS011;1413;52.440;13.506;2023-03-01T04:31:17;23.45;;;10.48;;
2810;SDS011;1413;52.440;13.506;2023-03-01T04:33:48;24.15;;;10.95;;
2810;SDS011;1413;52.440;13.506;2023-03-01T04:36:17;26.88;;;11.00;;
2810;SDS011;1413;52.440;13.506;2023-03-01T04:38:45;24.55;;;10.70;;
2810;SDS011;1413;52.440;13.506;2023-03-01T04:41:15;24.88;;;10.95;;
2810;SDS011;1413;52.440;13.506;2023-03-01T04:43:42;25.75;;;10.88;;
2810;SDS011;1413;52.440;13.506;2023-03-01T04:46:12;22.20;;;10.27;;
2810;SDS011;1413;52.440;13.506;2023-03-01T04:48:41;20.92;;;9.52;;
2810;SDS011;1413;52.440;13.506;2023-03-01T04:51:09;25.05;;;11.07;;
2810;SDS011;1413;52.440;13.506;2023-03-01T04:53:39;28.17;;;10.60;;
2810;SDS011;1413;52.440;13.506;2023-03-01T04:56:07;26.02;;;10.77;;
2810;SDS011;1413;52.440;13.506;2023-03-01T04:58:35;23.73;;;10.48;;
2810;SDS011;1413;52.440;13.506;2023-03-01T05:01:07;26.85;;;11.25;;
2810;SDS011;1413;52.440;13.506;2023-03-01T05:03:43;28.30;;;11.18;;
2810;SDS011;1413;52.440;13.506;2023-03-01T05:06:11;26.40;;;10.65;;
2810;SDS011;1413;52.440;13.506;2023-03-01T05:08:39;26.00;;;11.02;;
2810;SDS011;1413;52.440;13.506;2023-03-01T05:11:07;27.65;;;10.68;;
2810;SDS011;1413;52.440;13.506;2023-03-01T05:13:35;23.10;;;10.45;;
2810;SDS011;1413;52.440;13.506;2023-03-01T05:16:04;23.67;;;11.82;;
2810;SDS011;1413;52.440;13.506;2023-03-01T05:18:32;25.10;;;11.10;;
2810;SDS011;1413;52.440;13.506;2023-03-01T05:21:03;23.52;;;10.02;;
2810;SDS011;1413;52.440;13.506;2023-03-01T05:23:31;26.42;;;10.50;;
2810;SDS011;1413;52.440;13.506;2023-03-01T05:25:59;25.52;;;11.27;;
2810;SDS011;1413;52.440;13.506;2023-03-01T05:28:27;23.88;;;10.73;;
2810;SDS011;1413;52.440;13.506;2023-03-01T05:30:56;25.55;;;11.15;;
2810;SDS011;1413;52.440;13.506;2023-03-01T05:33:23;25.90;;;11.07;;
2810;SDS011;1413;52.440;13.506;2023-03-01T05:35:51;29.60;;;11.57;;
2810;SDS011;1413;52.440;13.506;2023-03-01T05:38:21;26.30;;;10.90;;
2810;SDS011;1413;52.440;13.506;2023-03-01T05:40:48;27.25;;;11.35;;
2810;SDS011;1413;52.440;13.506;2023-03-01T05:43:16;26.30;;;11.10;;
2810;SDS011;1413;52.440;13.506;2023-03-01T05:45:44;30.60;;;11.63;;
2810;SDS011;1413;52.440;13.506;2023-03-01T05:48:12;29.98;;;12.50;;
2810;SDS011;1413;52.440;13.506;2023-03-01T05:50:40;26.75;;;11.73;;
2810;SDS011;1413;52.440;13.506;2023-03-01T05:53:09;25.77;;;11.23;;
2810;SDS011;1413;52.440;13.506;2023-03-01T05:55:38;29.05;;;12.07;;
2810;SDS011;1413;52.440;13.506;2023-03-01T05:58:07;31.33;;;12.02;;
2810;SDS011;1413;52.440;13.506;2023-03-01T06:00:34;34.17;;;13.00;;
2810;SDS011;1413;52.440;13.506;2023-03-01T06:03:02;30.88;;;12.02;;
2810;SDS011;1413;52.440;13.506;2023-03-01T06:05:30;26.30;;;11.50;;
2810;SDS011;1413;52.440;13.506;2023-03-01T06:07:58;30.85;;;11.55;;
2810;SDS011;1413;52.440;13.506;2023-03-01T06:10:25;29.27;;;11.13;;
2810;SDS011;1413;52.440;13.506;2023-03-01T06:12:55;30.98;;;12.75;;
2810;SDS011;1413;52.440;13.506;2023-03-01T06:15:22;23.58;;;11.65;;
2810;SDS011;1413;52.440;13.506;2023-03-01T06:17:50;24.73;;;11.55;;
2810;SDS011;1413;52.440;13.506;2023-03-01T06:20:18;29.33;;;12.88;;
2810;SDS011;1413;52.440;13.506;2023-03-01T06:22:46;29.30;;;12.38;;
2810;SDS011;1413;52.440;13.506;2023-03-01T06:25:15;31.42;;;11.80;;
2810;SDS011;1413;52.440;13.506;2023-03-01T06:27:43;26.80;;;12.48;;
2810;SDS011;1413;52.440;13.506;2023-03-01T06:30:14;24.92;;;11.93;;
2810;SDS011;1413;52.440;13.506;2023-03-01T06:32:42;28.38;;;12.77;;
2810;SDS011;1413;52.440;13.506;2023-03-01T06:35:10;29.17;;;13.10;;
2810;SDS011;1413;52.440;13.506;2023-03-01T06:37:38;32.90;;;15.75;;
2810;SDS011;1413;52.440;13.506;2023-03-01T06:40:06;27.77;;;13.73;;
2810;SDS011;1413;52.440;13.506;2023-03-01T06:42:34;29.38;;;13.85;;
2810;SDS011;1413;52.440;13.506;2023-03-01T06:45:02;33.58;;;15.40;;
2810;SDS011;1413;52.440;13.506;2023-03-01T06:47:31;29.73;;;14.07;;
2810;SDS011;1413;52.440;13.506;2023-03-01T06:49:59;27.83;;;13.27;;
2810;SDS011;1413;52.440;13.506;2023-03-01T06:52:27;29.75;;;14.68;;
2810;SDS011;1413;52.440;13.506;2023-03-01T06:54:54;35.10;;;15.75;;
2810;SDS011;1413;52.440;13.506;2023-03-01T06:57:22;29.10;;;13.15;;
2810;SDS011;1413;52.440;13.506;2023-03-01T06:59:49;26.17;;;12.45;;
2810;SDS011;1413;52.440;13.506;2023-03-01T07:02:17;30.10;;;12.60;;
2810;SDS011;1413;52.440;13.506;2023-03-01T07:04:46;26.13;;;11.90;;
2810;SDS011;1413;52.440;13.506;2023-03-01T07:07:13;32.78;;;13.18;;
2810;SDS011;1413;52.440;13.506;2023-03-01T07:09:41;25.70;;;13.48;;
2810;SDS011;1413;52.440;13.506;2023-03-01T07:12:08;29.05;;;13.05;;
2810;SDS011;1413;52.440;13.506;2023-03-01T07:14:36;30.45;;;13.13;;
2810;SDS011;1413;52.440;13.506;2023-03-01T07:17:03;29.08;;;13.40;;
2810;SDS011;1413;52.440;13.506;2023-03-01T07:19:31;29.70;;;13.57;;
2810;SDS011;1413;52.440;13.506;2023-03-01T07:22:00;27.17;;;13.65;;
2810;SDS011;1413;52.440;13.506;2023-03-01T07:24:27;28.42;;;14.45;;
2810;SDS011;1413;52.440;13.506;2023-03-01T07:26:55;28.65;;;13.65;;
2810;SDS011;1413;52.440;13.506;2023-03-01T07:29:22;28.75;;;14.32;;
2810;SDS011;1413;52.440;13.506;2023-03-01T07:31:50;28.17;;;13.40;;
2810;SDS011;1413;52.440;13.506;2023-03-01T07:34:17;29.17;;;13.25;;
2810;SDS011;1413;52.440;13.506;2023-03-01T07:36:45;31.20;;;14.13;;
2810;SDS011;1413;52.440;13.506;2023-03-01T07:39:15;27.42;;;13.38;;
2810;SDS011;1413;52.440;13.506;2023-03-01T07:41:44;26.90;;;12.65;;
2810;SDS011;1413;52.440;13.506;2023-03-01T07:44:12;27.80;;;12.57;;
2810;SDS011;1413;52.440;13.506;2023-03-01T07:46:40;28.42;;;13.38;;
2810;SDS011;1413;52.440;13.506;2023-03-01T07:49:07;31.23;;;13.38;;
2810;SDS011;1413;52.440;13.506;2023-03-01T07:51:35;27.00;;;12.45;;
2810;SDS011;1413;52.440;13.506;2023-03-01T07:54:02;27.52;;;12.48;;
2810;SDS011;1413;52.440;13.506;2023-03-01T07:56:31;24.83;;;12.63;;
2810;SDS011;1413;52.440;13.506;2023-03-01T07:58:59;25.20;;;11.43;;
2810;SDS011;1413;52.440;13.506;2023-03-01T08:01:27;23.63;;;11.82;;
2810;SDS011;1413;52.440;13.506;2023-03-01T08:03:54;24.58;;;12.07;;
2810;SDS011;1413;52.440;13.506;2023-03-01T08:06:22;23.40;;;11.32;;
2810;SDS011;1413;52.440;13.506;2023-03-01T08:08:49;24.60;;;11.68;;
2810;SDS011;1413;52.440;13.506;2023-03-01T08:11:17;28.67;;;12.38;;
2810;SDS011;1413;52.440;13.506;2023-03-01T08:13:46;24.27;;;11.63;;
2810;SDS011;1413;52.440;13.506;2023-03-01T08:16:18;22.65;;;10.98;;
2810;SDS011;1413;52.440;13.506;2023-03-01T08:18:45;29.17;;;12.63;;
2810;SDS011;1413;52.440;13.506;2023-03-01T08:21:14;25.35;;;11.38;;
2810;SDS011;1413;52.440;13.506;2023-03-01T08:23:42;21.70;;;11.80;;
2810;SDS011;1413;52.440;13.506;2023-03-01T08:26:11;25.30;;;12.13;;
2810;SDS011;1413;52.440;13.506;2023-03-01T08:28:39;23.80;;;11.27;;
2810;SDS011;1413;52.440;13.506;2023-03-01T08:31:14;23.42;;;11.25;;
2810;SDS011;1413;52.440;13.506;2023-03-01T08:33:42;23.27;;;10.73;;
2810;SDS011;1413;52.440;13.506;2023-03-01T08:36:10;20.38;;;11.10;;
2810;SDS011;1413;52.440;13.506;2023-03-01T08:38:37;20.90;;;10.48;;
2810;SDS011;1413;52.440;13.506;2023-03-01T08:41:05;19.50;;;10.38;;
2810;SDS011;1413;52.440;13.506;2023-03-01T08:43:32;21.73;;;9.93;;
2810;SDS011;1413;52.440;13.506;2023-03-01T08:46:00;23.50;;;10.60;;
2810;SDS011;1413;52.440;13.506;2023-03-01T08:48:29;21.17;;;10.73;;
2810;SDS011;1413;52.440;13.506;2023-03-01T08:50:57;20.42;;;9.85;;
2810;SDS011;1413;52.440;13.506;2023-03-01T08:53:24;20.55;;;9.77;;
2810;SDS011;1413;52.440;13.506;2023-03-01T08:55:52;23.13;;;10.85;;
2810;SDS011;1413;52.440;13.506;2023-03-01T08:58:19;20.75;;;9.55;;
2810;SDS011;1413;52.440;13.506;2023-03-01T09:00:47;23.10;;;10.23;;
2810;SDS011;1413;52.440;13.506;2023-03-01T09:03:14;17.25;;;9.20;;
2810;SDS011;1413;52.440;13.506;2023-03-01T09:05:43;20.42;;;9.20;;
2810;SDS011;1413;52.440;13.506;2023-03-01T09:08:12;18.23;;;8.60;;
2810;SDS011;1413;52.440;13.506;2023-03-01T09:10:39;15.48;;;7.25;;
2810;SDS011;1413;52.440;13.506;2023-03-01T09:13:07;20.23;;;7.97;;
2810;SDS011;1413;52.440;13.506;2023-03-01T09:15:36;13.70;;;5.68;;
2810;SDS011;1413;52.440;13.506;2023-03-01T09:18:04;11.52;;;5.18;;
2810;SDS011;1413;52.440;13.506;2023-03-01T09:20:32;11.68;;;6.30;;
2810;SDS011;1413;52.440;13.506;2023-03-01T09:23:01;11.95;;;5.43;;
2810;SDS011;1413;52.440;13.506;2023-03-01T09:25:28;14.25;;;6.03;;
2810;SDS011;1413;52.440;13.506;2023-03-01T09:27:56;14.88;;;5.78;;
2810;SDS011;1413;52.440;13.506;2023-03-01T09:30:23;15.90;;;5.43;;
2810;SDS011;1413;52.440;13.506;2023-03-01T09:32:51;11.75;;;5.70;;
2810;SDS011;1413;52.440;13.506;2023-03-01T09:35:19;9.95;;;4.80;;
2810;SDS011;1413;52.440;13.506;2023-03-01T09:37:48;11.18;;;5.30;;
2810;SDS011;1413;52.440;13.506;2023-03-01T09:40:18;13.93;;;5.32;;
2810;SDS011;1413;52.440;13.506;2023-03-01T09:42:47;15.05;;;5.95;;
2810;SDS011;1413;52.440;13.506;2023-03-01T09:45:19;12.27;;;5.15;;
2810;SDS011;1413;52.440;13.506;2023-03-01T09:47:49;12.40;;;5.03;;
2810;SDS011;1413;52.440;13.506;2023-03-01T09:50:18;16.08;;;5.45;;
2810;SDS011;1413;52.440;13.506;2023-03-01T09:52:47;10.35;;;4.85;;
2810;SDS011;1413;52.440;13.506;2023-03-01T09:55:16;15.30;;;5.32;;
2810;SDS011;1413;52.440;13.506;2023-03-01T09:57:47;10.75;;;4.47;;
2810;SDS011;1413;52.440;13.506;2023-03-01T10:00:19;11.10;;;4.75;;
2810;SDS011;1413;52.440;13.506;2023-03-01T10:02:51;8.90;;;3.90;;
2810;SDS011;1413;52.440;13.506;2023-03-01T10:05:25;9.55;;;3.80;;
2810;SDS011;1413;52.440;13.506;2023-03-01T10:07:56;6.70;;;2.28;;
2810;SDS011;1413;52.440;13.506;2023-03-01T10:10:31;7.38;;;2.40;;
2810;SDS011;1413;52.440;13.506;2023-03-01T10:13:00;7.18;;;2.83;;
2810;SDS011;1413;52.440;13.506;2023-03-01T10:15:33;7.93;;;2.97;;
2810;SDS011;1413;52.440;13.506;2023-03-01T10:18:03;10.32;;;4.05;;
2810;SDS011;1413;52.440;13.506;2023-03-01T10:20:36;19.30;;;8.23;;
2810;SDS011;1413;52.440;13.506;2023-03-01T10:23:09;6.93;;;3.00;;
2810;SDS011;1413;52.440;13.506;2023-03-01T10:25:42;6.30;;;2.88;;
2810;SDS011;1413;52.440;13.506;2023-03-01T10:28:16;9.60;;;3.40;;
2810;SDS011;1413;52.440;13.506;2023-03-01T10:30:44;7.32;;;2.80;;
2810;SDS011;1413;52.440;13.506;2023-03-01T10:33:14;6.85;;;2.95;;
2810;SDS011;1413;52.440;13.506;2023-03-01T10:35:43;7.45;;;3.50;;
2810;SDS011;1413;52.440;13.506;2023-03-01T10:38:11;10.48;;;3.60;;
2810;SDS011;1413;52.440;13.506;2023-03-01T10:40:50;7.60;;;3.40;;
2810;SDS011;1413;52.440;13.506;2023-03-01T10:43:19;9.50;;;3.90;;
2810;SDS011;1413;52.440;13.506;2023-03-01T10:45:47;8.95;;;4.07;;
2810;SDS011;1413;52.440;13.506;2023-03-01T10:48:16;7.50;;;3.60;;
2810;SDS011;1413;52.440;13.506;2023-03-01T10:50:46;9.73;;;3.67;;
2810;SDS011;1413;52.440;13.506;2023-03-01T10:53:20;14.82;;;3.92;;
2810;SDS011;1413;52.440;13.506;2023-03-01T10:55:56;10.40;;;3.80;;
2810;SDS011;1413;52.440;13.506;2023-03-01T10:58:26;10.23;;;4.03;;
2810;SDS011;1413;52.440;13.506;2023-03-01T11:00:54;7.65;;;3.60;;
2810;SDS011;1413;52.440;13.506;2023-03-01T11:03:23;9.52;;;3.88;;
2810;SDS011;1413;52.440;13.506;2023-03-01T11:05:58;10.02;;;4.43;;
2810;SDS011;1413;52.440;13.506;2023-03-01T11:08:30;7.70;;;3.60;;
2810;SDS011;1413;52.440;13.506;2023-03-01T11:11:04;10.75;;;4.40;;
2810;SDS011;1413;52.440;13.506;2023-03-01T11:13:33;6.70;;;3.30;;
2810;SDS011;1413;52.440;13.506;2023-03-01T11:16:05;8.52;;;3.33;;
2810;SDS011;1413;52.440;13.506;2023-03-01T11:18:34;8.90;;;3.97;;
2810;SDS011;1413;52.440;13.506;2023-03-01T11:21:13;8.50;;;3.97;;
2810;SDS011;1413;52.440;13.506;2023-03-01T11:23:42;7.93;;;3.50;;
2810;SDS011;1413;52.440;13.506;2023-03-01T11:26:12;8.90;;;3.33;;
2810;SDS011;1413;52.440;13.506;2023-03-01T11:28:43;7.70;;;3.35;;
2810;SDS011;1413;52.440;13.506;2023-03-01T11:31:11;7.53;;;3.30;;
2810;SDS011;1413;52.440;13.506;2023-03-01T11:33:43;10.50;;;3.17;;
2810;SDS011;1413;52.440;13.506;2023-03-01T11:36:15;7.68;;;3.15;;
2810;SDS011;1413;52.440;13.506;2023-03-01T11:38:43;9.43;;;3.35;;
2810;SDS011;1413;52.440;13.506;2023-03-01T11:41:12;7.10;;;2.88;;
2810;SDS011;1413;52.440;13.506;2023-03-01T11:43:46;7.03;;;2.40;;
2810;SDS011;1413;52.440;13.506;2023-03-01T11:49:03;8.75;;;3.10;;
2810;SDS011;1413;52.440;13.506;2023-03-01T11:51:39;5.57;;;2.47;;
2810;SDS011;1413;52.440;13.506;2023-03-01T11:54:18;6.10;;;2.70;;
2810;SDS011;1413;52.440;13.506;2023-03-01T11:56:50;5.75;;;2.40;;
2810;SDS011;1413;52.440;13.506;2023-03-01T12:02:16;7.80;;;2.38;;
2810;SDS011;1413;52.440;13.506;2023-03-01T12:05:05;5.70;;;2.33;;
2810;SDS011;1413;52.440;13.506;2023-03-01T12:07:44;5.53;;;1.95;;
2810;SDS011;1413;52.440;13.506;2023-03-01T12:10:19;5.22;;;1.95;;
2810;SDS011;1413;52.440;13.506;2023-03-01T12:12:51;4.93;;;2.15;;
2810;SDS011;1413;52.440;13.506;2023-03-01T12:15:31;8.15;;;2.70;;
2810;SDS011;1413;52.440;13.506;2023-03-01T12:18:11;9.98;;;2.42;;
2810;SDS011;1413;52.440;13.506;2023-03-01T12:20:42;5.78;;;2.22;;
2810;SDS011;1413;52.440;13.506;2023-03-01T12:23:20;6.13;;;1.90;;
2810;SDS011;1413;52.440;13.506;2023-03-01T12:25:53;5.82;;;2.00;;
2810;SDS011;1413;52.440;13.506;2023-03-01T12:28:35;4.90;;;1.92;;
2810;SDS011;1413;52.440;13.506;2023-03-01T12:31:15;4.68;;;1.90;;
2810;SDS011;1413;52.440;13.506;2023-03-01T12:36:26;6.60;;;1.98;;
2810;SDS011;1413;52.440;13.506;2023-03-01T12:39:00;5.50;;;1.95;;
2810;SDS011;1413;52.440;13.506;2023-03-01T12:44:00;9.68;;;1.90;;
2810;SDS011;1413;52.440;13.506;2023-03-01T12:46:32;3.97;;;1.52;;
2810;SDS011;1413;52.440;13.506;2023-03-01T12:49:05;4.45;;;1.70;;
2810;SDS011;1413;52.440;13.506;2023-03-01T12:51:37;4.05;;;1.70;;
2810;SDS011;1413;52.440;13.506;2023-03-01T12:54:07;6.57;;;2.20;;
2810;SDS011;1413;52.440;13.506;2023-03-01T12:56:37;4.57;;;1.50;;
2810;SDS011;1413;52.440;13.506;2023-03-01T12:59:08;3.88;;;1.40;;
2810;SDS011;1413;52.440;13.506;2023-03-01T13:01:39;4.38;;;1.40;;
2810;SDS011;1413;52.440;13.506;2023-03-01T13:04:12;4.28;;;1.60;;
2810;SDS011;1413;52.440;13.506;2023-03-01T13:06:47;4.90;;;1.67;;
2810;SDS011;1413;52.440;13.506;2023-03-01T13:09:22;4.32;;;1.52;;
2810;SDS011;1413;52.440;13.506;2023-03-01T13:11:52;6.15;;;1.65;;
2810;SDS011;1413;52.440;13.506;2023-03-01T13:14:44;6.10;;;1.33;;
2810;SDS011;1413;52.440;13.506;2023-03-01T13:17:29;3.78;;;1.45;;
2810;SDS011;1413;52.440;13.506;2023-03-01T13:19:57;3.70;;;1.42;;
2810;SDS011;1413;52.440;13.506;2023-03-01T13:22:27;4.20;;;1.58;;
2810;SDS011;1413;52.440;13.506;2023-03-01T13:25:00;5.18;;;1.55;;
2810;SDS011;1413;52.440;13.506;2023-03-01T13:27:28;6.18;;;1.77;;
2810;SDS011;1413;52.440;13.506;2023-03-01T13:29:56;5.78;;;1.70;;
2810;SDS011;1413;52.440;13.506;2023-03-01T13:32:26;4.82;;;1.80;;
2810;SDS011;1413;52.440;13.506;2023-03-01T13:37:52;4.10;;;1.70;;
2810;SDS011;1413;52.440;13.506;2023-03-01T13:41:00;5.10;;;2.03;;
2810;SDS011;1413;52.440;13.506;2023-03-01T13:43:29;4.85;;;1.77;;
2810;SDS011;1413;52.440;13.506;2023-03-01T13:45:57;5.53;;;1.58;;
2810;SDS011;1413;52.440;13.506;2023-03-01T13:48:25;7.35;;;1.60;;
2810;SDS011;1413;52.440;13.506;2023-03-01T13:50:54;5.18;;;1.83;;
2810;SDS011;1413;52.440;13.506;2023-03-01T13:53:24;4.20;;;1.70;;
2810;SDS011;1413;52.440;13.506;2023-03-01T13:55:53;4.35;;;1.70;;
2810;SDS011;1413;52.440;13.506;2023-03-01T13:58:27;3.88;;;1.40;;
2810;SDS011;1413;52.440;13.506;2023-03-01T14:00:55;4.15;;;1.70;;
2810;SDS011;1413;52.440;13.506;2023-03-01T14:03:23;6.28;;;1.40;;
2810;SDS011;1413;52.440;13.506;2023-03-01T14:05:58;4.65;;;1.65;;
2810;SDS011;1413;52.440;13.506;2023-03-01T14:08:39;6.30;;;2.00;;
2810;SDS011;1413;52.440;13.506;2023-03-01T14:11:20;6.22;;;1.55;;
2810;SDS011;1413;52.440;13.506;2023-03-01T14:13:56;3.97;;;1.77;;
2810;SDS011;1413;52.440;13.506;2023-03-01T14:16:30;5.05;;;1.60;;
2810;SDS011;1413;52.440;13.506;2023-03-01T14:19:02;4.18;;;1.90;;
2810;SDS011;1413;52.440;13.506;2023-03-01T14:21:33;3.78;;;1.50;;
2810;SDS011;1413;52.440;13.506;2023-03-01T14:24:01;4.50;;;1.98;;
2810;SDS011;1413;52.440;13.506;2023-03-01T14:26:29;3.72;;;1.60;;
2810;SDS011;1413;52.440;13.506;2023-03-01T14:28:58;4.20;;;1.75;;
2810;SDS011;1413;52.440;13.506;2023-03-01T14:31:34;4.40;;;1.52;;
2810;SDS011;1413;52.440;13.506;2023-03-01T14:34:18;6.78;;;1.90;;
2810;SDS011;1413;52.440;13.506;2023-03-01T14:36:46;6.78;;;2.03;;
2810;SDS011;1413;52.440;13.506;2023-03-01T14:39:17;3.63;;;1.58;;
2810;SDS011;1413;52.440;13.506;2023-03-01T14:41:45;4.10;;;1.55;;
2810;SDS011;1413;52.440;13.506;2023-03-01T14:44:14;4.18;;;1.50;;
2810;SDS011;1413;52.440;13.506;2023-03-01T14:46:44;3.00;;;1.40;;
2810;SDS011;1413;52.440;13.506;2023-03-01T14:49:12;3.75;;;1.30;;
2810;SDS011;1413;52.440;13.506;2023-03-01T14:51:42;5.30;;;1.50;;
2810;SDS011;1413;52.440;13.506;2023-03-01T14:54:18;4.50;;;1.90;;
2810;SDS011;1413;52.440;13.506;2023-03-01T14:56:47;3.92;;;1.60;;
2810;SDS011;1413;52.440;13.506;2023-03-01T14:59:16;3.75;;;1.70;;
2810;SDS011;1413;52.440;13.506;2023-03-01T15:01:45;4.50;;;1.63;;
2810;SDS011;1413;52.440;13.506;2023-03-01T15:04:13;4.47;;;1.45;;
2810;SDS011;1413;52.440;13.506;2023-03-01T15:06:41;4.00;;;1.70;;
2810;SDS011;1413;52.440;13.506;2023-03-01T15:09:12;4.38;;;1.70;;
2810;SDS011;1413;52.440;13.506;2023-03-01T15:11:41;6.22;;;1.98;;
2810;SDS011;1413;52.440;13.506;2023-03-01T15:14:27;5.10;;;1.60;;